createdAt,value
2023-05-25T00:01:02.792Z,17.13
2023-05-25T00:01:57.213Z,17.11
2023-05-25T00:02:57.321Z,17.10
2023-05-25T00:03:57.138Z,17.08
2023-05-25T00:04:57.033Z,17.13
2023-05-25T00:05:56.979Z,17.14
2023-05-25T00:06:56.936Z,17.10
2023-05-25T00:07:56.870Z,17.18
2023-05-25T00:08:56.827Z,17.13
2023-05-25T00:09:56.765Z,17.18
2023-05-25T00:10:56.761Z,17.13
2023-05-25T00:11:56.656Z,17.14
2023-05-25T00:12:56.619Z,17.13
2023-05-25T00:13:56.553Z,17.14
2023-05-25T00:14:56.506Z,17.15
2023-05-25T00:15:56.451Z,17.07
2023-05-25T00:16:56.440Z,17.13
2023-05-25T00:17:56.396Z,17.13
2023-05-25T00:18:56.302Z,17.08
2023-05-25T00:19:56.253Z,17.04
2023-05-25T00:20:56.186Z,17.11
2023-05-25T00:21:56.130Z,17.06
2023-05-25T00:22:56.094Z,17.11
2023-05-25T00:23:56.059Z,17.14
2023-05-25T00:24:55.985Z,17.10
2023-05-25T00:25:55.923Z,17.04
2023-05-25T00:26:55.868Z,17.07
2023-05-25T00:27:55.817Z,17.13
2023-05-25T00:28:55.785Z,17.00
2023-05-25T00:29:55.710Z,17.07
2023-05-25T00:30:55.711Z,17.06
2023-05-25T00:31:55.636Z,17.00
2023-05-25T00:32:55.635Z,17.07
2023-05-25T00:33:55.500Z,16.99
2023-05-25T00:34:55.460Z,17.07
2023-05-25T00:35:55.397Z,16.98
2023-05-25T00:36:55.343Z,16.98
2023-05-25T00:37:55.288Z,17.03
2023-05-25T00:38:55.249Z,17.03
2023-05-25T00:39:55.185Z,17.06
2023-05-25T00:40:55.129Z,17.00
2023-05-25T00:41:55.088Z,16.99
2023-05-25T00:42:55.031Z,16.96
2023-05-25T00:43:54.978Z,17.00
2023-05-25T00:44:54.917Z,16.96
2023-05-25T00:45:54.868Z,16.99
2023-05-25T00:46:54.858Z,17.00
2023-05-25T00:47:54.824Z,17.04
2023-05-25T00:48:54.718Z,17.00
2023-05-25T00:49:54.657Z,16.99
2023-05-25T00:50:54.606Z,17.04
2023-05-25T00:51:54.565Z,16.96
2023-05-25T00:52:54.508Z,16.95
2023-05-25T00:53:54.448Z,16.98
2023-05-25T00:54:54.432Z,17.06
2023-05-25T00:55:54.336Z,16.99
2023-05-25T00:56:54.300Z,16.99
2023-05-25T00:57:54.232Z,17.03
2023-05-25T00:58:54.181Z,16.96
2023-05-25T00:59:54.128Z,17.07
2023-05-25T01:00:54.087Z,17.00
2023-05-25T01:01:54.155Z,16.95
2023-05-25T01:02:54.063Z,16.98
2023-05-25T01:03:54.218Z,16.95
2023-05-25T01:04:53.869Z,16.99
2023-05-25T01:05:53.813Z,16.99
2023-05-25T01:06:53.762Z,16.90
2023-05-25T01:07:53.704Z,16.99
2023-05-25T01:08:53.655Z,16.93
2023-05-25T01:09:53.614Z,16.96
2023-05-25T01:10:53.562Z,16.99
2023-05-25T01:11:53.506Z,16.98
2023-05-25T01:12:53.465Z,16.90
2023-05-25T01:13:53.390Z,16.96
2023-05-25T01:14:53.343Z,16.90
2023-05-25T01:15:53.288Z,16.92
2023-05-25T01:16:53.464Z,16.93
2023-05-25T01:17:53.195Z,16.92
2023-05-25T01:18:53.128Z,16.93
2023-05-25T01:20:08.884Z,16.95
2023-05-25T01:20:53.078Z,16.88
2023-05-25T01:21:52.972Z,16.88
2023-05-25T01:22:52.921Z,16.95
2023-05-25T01:23:52.936Z,16.96
2023-05-25T01:24:52.806Z,16.95
2023-05-25T01:25:52.755Z,16.99
2023-05-25T01:26:52.717Z,16.90
2023-05-25T01:27:52.657Z,16.96
2023-05-25T01:28:52.597Z,16.95
2023-05-25T01:29:52.557Z,16.96
2023-05-25T01:30:52.500Z,16.93
2023-05-25T01:31:52.462Z,16.95
2023-05-25T01:32:52.401Z,16.80
2023-05-25T01:33:52.329Z,16.90
2023-05-25T01:34:52.280Z,16.95
2023-05-25T01:35:52.229Z,16.96
2023-05-25T01:36:52.177Z,16.99
2023-05-25T01:37:52.132Z,16.90
2023-05-25T01:38:52.071Z,16.89
2023-05-25T01:39:52.014Z,16.86
2023-05-25T01:40:51.963Z,16.89
2023-05-25T01:41:51.926Z,16.88
2023-05-25T01:42:51.877Z,16.92
2023-05-25T01:43:51.799Z,16.98
2023-05-25T01:44:51.750Z,16.95
2023-05-25T01:45:51.810Z,16.88
2023-05-25T01:46:51.645Z,16.83
2023-05-25T01:47:51.635Z,16.92
2023-05-25T01:48:51.545Z,16.90
2023-05-25T01:49:51.489Z,16.92
2023-05-25T01:50:51.431Z,16.89
2023-05-25T01:51:51.401Z,16.80
2023-05-25T01:52:51.328Z,16.80
2023-05-25T01:53:51.272Z,16.88
2023-05-25T01:54:51.223Z,16.81
2023-05-25T01:55:51.172Z,16.83
2023-05-25T01:56:51.145Z,16.74
2023-05-25T01:57:51.069Z,16.88
2023-05-25T01:58:51.025Z,16.75
2023-05-25T01:59:50.977Z,16.74
2023-05-25T02:00:50.936Z,16.86
2023-05-25T02:01:53.197Z,16.85
2023-05-25T02:02:50.814Z,16.90
2023-05-25T02:03:50.807Z,16.80
2023-05-25T02:04:50.707Z,16.80
2023-05-25T02:05:50.659Z,16.80
2023-05-25T02:06:50.590Z,16.85
2023-05-25T02:07:50.530Z,16.85
2023-05-25T02:08:50.480Z,16.77
2023-05-25T02:09:50.429Z,16.83
2023-05-25T02:10:50.372Z,16.86
2023-05-25T02:11:50.320Z,16.86
2023-05-25T02:12:50.266Z,16.83
2023-05-25T02:13:50.217Z,16.88
2023-05-25T02:14:50.259Z,16.73
2023-05-25T02:15:50.115Z,16.77
2023-05-25T02:16:50.055Z,16.80
2023-05-25T02:17:50.015Z,16.80
2023-05-25T02:18:49.952Z,16.73
2023-05-25T02:19:49.892Z,16.77
2023-05-25T02:20:49.847Z,16.74
2023-05-25T02:21:49.801Z,16.78
2023-05-25T02:22:49.738Z,16.75
2023-05-25T02:23:49.685Z,16.78
2023-05-25T02:24:49.629Z,16.75
2023-05-25T02:25:49.575Z,16.73
2023-05-25T02:26:49.530Z,16.74
2023-05-25T02:27:49.470Z,16.74
2023-05-25T02:28:49.422Z,16.70
2023-05-25T02:29:49.368Z,16.74
2023-05-25T02:30:49.331Z,16.77
2023-05-25T02:31:49.335Z,16.68
2023-05-25T02:32:49.228Z,16.74
2023-05-25T02:33:49.160Z,16.77
2023-05-25T02:34:49.105Z,16.71
2023-05-25T02:35:49.054Z,16.74
2023-05-25T02:36:49.001Z,16.70
2023-05-25T02:37:50.986Z,16.74
2023-05-25T02:38:48.891Z,16.70
2023-05-25T02:39:48.847Z,16.77
2023-05-25T02:40:48.784Z,16.67
2023-05-25T02:41:48.729Z,16.71
2023-05-25T02:42:48.756Z,16.68
2023-05-25T02:43:48.625Z,16.67
2023-05-25T02:44:48.597Z,16.73
2023-05-25T02:45:48.535Z,16.68
2023-05-25T02:46:48.499Z,16.67
2023-05-25T02:47:48.447Z,16.73
2023-05-25T02:48:48.356Z,16.71
2023-05-25T02:49:48.310Z,16.74
2023-05-25T02:50:48.261Z,16.68
2023-05-25T02:51:48.209Z,16.65
2023-05-25T02:52:48.156Z,16.63
2023-05-25T02:53:48.094Z,16.63
2023-05-25T02:54:48.064Z,16.65
2023-05-25T02:55:47.990Z,16.63
2023-05-25T02:56:47.946Z,16.68
2023-05-25T02:57:47.884Z,16.65
2023-05-25T02:58:47.829Z,16.65
2023-05-25T02:59:47.773Z,16.67
2023-05-25T03:00:47.745Z,16.68
2023-05-25T03:01:47.664Z,16.74
2023-05-25T03:02:47.757Z,16.70
2023-05-25T03:03:47.604Z,16.63
2023-05-25T03:04:47.510Z,16.62
2023-05-25T03:05:47.459Z,16.70
2023-05-25T03:06:47.406Z,16.62
2023-05-25T03:07:47.350Z,16.63
2023-05-25T03:08:47.293Z,16.62
2023-05-25T03:09:47.258Z,16.67
2023-05-25T03:10:47.210Z,16.68
2023-05-25T03:11:47.141Z,16.65
2023-05-25T03:12:47.085Z,16.73
2023-05-25T03:13:47.034Z,16.71
2023-05-25T03:14:46.979Z,16.68
2023-05-25T03:15:46.938Z,16.68
2023-05-25T03:16:46.900Z,16.65
2023-05-25T03:17:46.872Z,16.67
2023-05-25T03:18:46.799Z,16.60
2023-05-25T03:19:46.726Z,16.73
2023-05-25T03:20:46.662Z,16.62
2023-05-25T03:21:46.614Z,16.59
2023-05-25T03:22:46.554Z,16.71
2023-05-25T03:23:46.506Z,16.65
2023-05-25T03:24:46.455Z,16.70
2023-05-25T03:25:46.615Z,16.59
2023-05-25T03:26:46.360Z,16.70
2023-05-25T03:27:46.283Z,16.71
2023-05-25T03:28:46.240Z,16.62
2023-05-25T03:29:46.188Z,16.73
2023-05-25T03:30:46.138Z,16.55
2023-05-25T03:31:46.118Z,16.55
2023-05-25T03:32:46.034Z,16.65
2023-05-25T03:33:45.973Z,16.56
2023-05-25T03:34:45.927Z,16.67
2023-05-25T03:35:46.032Z,16.58
2023-05-25T03:36:45.930Z,16.56
2023-05-25T03:37:45.865Z,16.58
2023-05-25T03:38:45.726Z,16.58
2023-05-25T03:39:45.661Z,16.59
2023-05-25T03:40:45.597Z,16.56
2023-05-25T03:41:45.549Z,16.55
2023-05-25T03:42:45.493Z,16.58
2023-05-25T03:43:45.444Z,16.59
2023-05-25T03:44:45.385Z,16.59
2023-05-25T03:45:45.662Z,16.53
2023-05-25T03:46:45.401Z,16.60
2023-05-25T03:47:45.271Z,16.60
2023-05-25T03:48:45.174Z,16.59
2023-05-25T03:49:45.124Z,16.56
2023-05-25T03:50:45.080Z,16.62
2023-05-25T03:51:45.013Z,16.56
2023-05-25T03:52:44.974Z,16.62
2023-05-25T03:53:44.924Z,16.60
2023-05-25T03:54:44.917Z,16.53
2023-05-25T03:55:45.094Z,16.53
2023-05-25T03:56:44.750Z,16.56
2023-05-25T03:57:44.705Z,16.58
2023-05-25T03:58:44.650Z,16.62
2023-05-25T03:59:44.594Z,16.58
2023-05-25T04:00:44.533Z,16.62
2023-05-25T04:01:44.486Z,16.65
2023-05-25T04:02:44.579Z,16.60
2023-05-25T04:03:44.673Z,16.56
2023-05-25T04:04:44.399Z,16.58
2023-05-25T04:05:44.440Z,16.55
2023-05-25T04:06:44.220Z,16.59
2023-05-25T04:07:44.162Z,16.56
2023-05-25T04:08:44.110Z,16.58
2023-05-25T04:09:44.059Z,16.56
2023-05-25T04:10:44.000Z,16.60
2023-05-25T04:11:43.957Z,16.59
2023-05-25T04:12:43.898Z,16.58
2023-05-25T04:13:43.860Z,16.55
2023-05-25T04:14:43.796Z,16.58
2023-05-25T04:15:43.977Z,16.59
2023-05-25T04:16:43.780Z,16.52
2023-05-25T04:17:43.685Z,16.52
2023-05-25T04:18:43.581Z,16.59
2023-05-25T04:19:43.523Z,16.59
2023-05-25T04:20:43.556Z,16.49
2023-05-25T04:21:43.418Z,16.52
2023-05-25T04:22:43.438Z,16.56
2023-05-25T04:23:43.313Z,16.52
2023-05-25T04:24:43.259Z,16.56
2023-05-25T04:25:43.289Z,16.53
2023-05-25T04:26:43.160Z,16.53
2023-05-25T04:27:43.104Z,16.49
2023-05-25T04:28:43.051Z,16.53
2023-05-25T04:29:42.992Z,16.58
2023-05-25T04:30:42.942Z,16.52
2023-05-25T04:31:42.895Z,16.45
2023-05-25T04:32:45.213Z,16.53
2023-05-25T04:33:42.781Z,16.49
2023-05-25T04:34:42.729Z,16.45
2023-05-25T04:35:42.813Z,16.56
2023-05-25T04:36:42.614Z,16.45
2023-05-25T04:37:42.568Z,16.52
2023-05-25T04:38:42.538Z,16.45
2023-05-25T04:39:42.463Z,16.41
2023-05-25T04:40:42.404Z,16.48
2023-05-25T04:41:42.352Z,16.52
2023-05-25T04:42:42.311Z,16.45
2023-05-25T04:43:56.506Z,16.48
2023-05-25T04:44:42.193Z,16.49
2023-05-25T04:45:42.191Z,16.49
2023-05-25T04:46:42.086Z,16.52
2023-05-25T04:47:42.036Z,16.48
2023-05-25T04:48:41.978Z,16.48
2023-05-25T04:49:41.943Z,16.48
2023-05-25T04:50:41.896Z,16.50
2023-05-25T04:51:41.823Z,16.44
2023-05-25T04:52:41.765Z,16.52
2023-05-25T04:53:41.712Z,16.45
2023-05-25T04:54:41.757Z,16.52
2023-05-25T04:55:41.638Z,16.53
2023-05-25T04:56:41.551Z,16.49
2023-05-25T04:57:41.498Z,16.49
2023-05-25T04:58:41.478Z,16.50
2023-05-25T04:59:41.402Z,16.45
2023-05-25T05:00:41.458Z,16.45
2023-05-25T05:01:41.499Z,16.45
2023-05-25T05:02:41.263Z,16.41
2023-05-25T05:03:41.304Z,16.48
2023-05-25T05:04:41.136Z,16.52
2023-05-25T05:05:41.083Z,16.49
2023-05-25T05:06:41.030Z,16.44
2023-05-25T05:07:40.972Z,16.49
2023-05-25T05:08:40.917Z,16.49
2023-05-25T05:09:40.866Z,16.44
2023-05-25T05:10:40.821Z,16.48
2023-05-25T05:11:40.762Z,16.48
2023-05-25T05:12:40.702Z,16.45
2023-05-25T05:13:40.652Z,16.48
2023-05-25T05:14:40.595Z,16.44
2023-05-25T05:15:40.543Z,16.41
2023-05-25T05:16:40.503Z,16.48
2023-05-25T05:19:12.046Z,16.45
2023-05-25T05:20:12.033Z,16.40
2023-05-25T05:22:04.866Z,16.50
2023-05-25T05:23:04.801Z,16.42
2023-05-25T05:24:57.653Z,16.44
2023-05-25T05:25:57.595Z,16.41
2023-05-25T05:27:50.455Z,16.45
2023-05-25T05:28:50.390Z,16.41
2023-05-25T05:30:43.254Z,16.45
2023-05-25T05:31:43.209Z,16.41
2023-05-25T05:33:36.129Z,16.42
2023-05-25T05:34:36.000Z,16.44
2023-05-25T05:36:28.861Z,16.42
2023-05-25T05:37:28.798Z,16.44
2023-05-25T05:39:21.685Z,16.49
2023-05-25T05:40:21.618Z,16.40
2023-05-25T05:42:14.500Z,16.40
2023-05-25T05:43:14.434Z,16.41
2023-05-25T05:45:07.288Z,16.44
2023-05-25T05:46:07.258Z,16.41
2023-05-25T05:48:00.153Z,16.50
2023-05-25T05:49:00.135Z,16.44
2023-05-25T05:50:52.901Z,16.45
2023-05-25T05:51:52.845Z,16.49
2023-05-25T05:53:45.702Z,16.42
2023-05-25T05:54:45.646Z,16.42
2023-05-25T05:56:39.016Z,16.49
2023-05-25T05:57:38.968Z,16.44
2023-05-25T05:58:38.902Z,16.41
2023-05-25T05:59:38.852Z,16.48
2023-05-25T06:00:38.810Z,16.41
2023-05-25T06:01:38.746Z,16.41
2023-05-25T06:02:41.356Z,16.49
2023-05-25T06:03:39.519Z,16.48
2023-05-25T06:04:38.669Z,16.49
2023-05-25T06:05:38.578Z,16.41
2023-05-25T06:06:38.474Z,16.49
2023-05-25T06:07:38.434Z,16.49
2023-05-25T06:08:38.366Z,16.49
2023-05-25T06:09:38.314Z,16.50
2023-05-25T06:10:38.265Z,16.45
2023-05-25T06:11:38.208Z,16.40
2023-05-25T06:12:38.157Z,16.56
2023-05-25T06:13:38.114Z,16.48
2023-05-25T06:14:38.047Z,16.49
2023-05-25T06:15:38.004Z,16.49
2023-05-25T06:16:37.978Z,16.50
2023-05-25T06:17:37.965Z,16.41
2023-05-25T06:18:37.833Z,16.49
2023-05-25T06:19:37.786Z,16.44
2023-05-25T06:20:37.953Z,16.52
2023-05-25T06:21:37.678Z,16.48
2023-05-25T06:22:37.633Z,16.48
2023-05-25T06:23:37.574Z,16.52
2023-05-25T06:24:37.517Z,16.49
2023-05-25T06:25:37.464Z,16.48
2023-05-25T06:26:37.412Z,16.53
2023-05-25T06:27:37.353Z,16.50
2023-05-25T06:28:37.303Z,16.53
2023-05-25T06:29:37.254Z,16.48
2023-05-25T06:30:37.194Z,16.49
2023-05-25T06:31:37.168Z,16.59
2023-05-25T06:32:37.111Z,16.53
2023-05-25T06:33:37.039Z,16.59
2023-05-25T06:34:38.278Z,16.52
2023-05-25T06:35:36.923Z,16.42
2023-05-25T06:36:36.871Z,16.50
2023-05-25T06:37:36.820Z,16.48
2023-05-25T06:38:36.780Z,16.55
2023-05-25T06:39:36.719Z,16.48
2023-05-25T06:40:36.658Z,16.53
2023-05-25T06:41:36.608Z,16.53
2023-05-25T06:42:36.553Z,16.50
2023-05-25T06:43:36.505Z,16.56
2023-05-25T06:44:36.529Z,16.56
2023-05-25T06:45:36.405Z,16.55
2023-05-25T06:46:36.469Z,16.49
2023-05-25T06:47:36.335Z,16.49
2023-05-25T06:48:36.240Z,16.56
2023-05-25T06:49:36.186Z,16.53
2023-05-25T06:50:36.134Z,16.55
2023-05-25T06:51:36.074Z,16.56
2023-05-25T06:52:36.023Z,16.49
2023-05-25T06:53:35.966Z,16.55
2023-05-25T06:54:35.916Z,16.56
2023-05-25T06:55:35.864Z,16.56
2023-05-25T06:56:35.809Z,16.58
2023-05-25T06:57:35.753Z,16.53
2023-05-25T06:58:35.699Z,16.55
2023-05-25T06:59:35.646Z,16.56
2023-05-25T07:00:35.598Z,16.53
2023-05-25T07:01:35.607Z,16.56
2023-05-25T07:02:35.534Z,16.55
2023-05-25T07:03:35.438Z,16.52
2023-05-25T07:04:35.409Z,16.56
2023-05-25T07:05:35.331Z,16.53
2023-05-25T07:06:35.285Z,16.52
2023-05-25T07:07:35.225Z,16.52
2023-05-25T07:08:35.169Z,16.59
2023-05-25T07:09:35.114Z,16.56
2023-05-25T07:10:35.098Z,16.52
2023-05-25T07:11:35.015Z,16.58
2023-05-25T07:12:34.962Z,16.58
2023-05-25T07:13:34.910Z,16.55
2023-05-25T07:14:34.848Z,16.53
2023-05-25T07:15:34.801Z,16.53
2023-05-25T07:16:34.819Z,16.56
2023-05-25T07:17:34.726Z,16.56
2023-05-25T07:18:34.642Z,16.55
2023-05-25T07:19:34.597Z,16.56
2023-05-25T07:20:34.601Z,16.65
2023-05-25T07:21:34.492Z,16.56
2023-05-25T07:22:34.425Z,16.58
2023-05-25T07:23:34.371Z,16.59
2023-05-25T07:24:34.322Z,16.56
2023-05-25T07:25:49.050Z,16.56
2023-05-25T07:26:34.224Z,16.55
2023-05-25T07:27:34.162Z,16.60
2023-05-25T07:28:34.114Z,16.55
2023-05-25T07:29:34.055Z,16.59
2023-05-25T07:30:34.012Z,16.58
2023-05-25T07:31:33.967Z,16.56
2023-05-25T07:32:33.936Z,16.60
2023-05-25T07:33:33.847Z,16.60
2023-05-25T07:34:33.796Z,16.62
2023-05-25T07:35:33.731Z,16.56
2023-05-25T07:36:33.683Z,16.60
2023-05-25T07:37:33.628Z,16.56
2023-05-25T07:38:33.578Z,16.60
2023-05-25T07:39:33.517Z,16.58
2023-05-25T07:40:33.467Z,16.56
2023-05-25T07:41:33.421Z,16.62
2023-05-25T07:42:33.445Z,16.62
2023-05-25T07:43:33.318Z,16.55
2023-05-25T07:44:33.256Z,16.58
2023-05-25T07:45:33.201Z,16.58
2023-05-25T07:46:33.178Z,16.56
2023-05-25T07:47:33.125Z,16.58
2023-05-25T07:48:33.102Z,16.58
2023-05-25T07:49:33.018Z,16.58
2023-05-25T07:50:32.933Z,16.63
2023-05-25T07:51:32.936Z,16.60
2023-05-25T07:52:32.832Z,16.56
2023-05-25T07:53:32.779Z,16.58
2023-05-25T07:54:32.752Z,16.53
2023-05-25T07:55:32.671Z,16.62
2023-05-25T07:56:32.622Z,16.59
2023-05-25T07:57:32.576Z,16.60
2023-05-25T07:58:32.540Z,16.56
2023-05-25T07:59:32.451Z,16.60
2023-05-25T08:00:32.404Z,16.56
2023-05-25T08:01:32.450Z,16.56
2023-05-25T08:02:32.377Z,16.52
2023-05-25T08:03:48.107Z,16.62
2023-05-25T08:04:32.270Z,16.59
2023-05-25T08:05:32.175Z,16.55
2023-05-25T08:06:32.089Z,16.55
2023-05-25T08:07:32.030Z,16.68
2023-05-25T08:08:31.976Z,16.59
2023-05-25T08:09:31.941Z,16.58
2023-05-25T08:10:31.869Z,16.58
2023-05-25T08:11:31.830Z,16.62
2023-05-25T08:12:46.993Z,16.59
2023-05-25T08:13:31.703Z,16.71
2023-05-25T08:14:31.652Z,16.74
2023-05-25T08:15:31.608Z,16.71
2023-05-25T08:16:31.589Z,16.70
2023-05-25T08:17:31.545Z,16.65
2023-05-25T08:18:31.462Z,16.73
2023-05-25T08:19:31.386Z,16.65
2023-05-25T08:20:31.394Z,16.62
2023-05-25T08:21:33.368Z,16.63
2023-05-25T08:22:31.230Z,16.67
2023-05-25T08:23:31.166Z,16.71
2023-05-25T08:24:31.121Z,16.63
2023-05-25T08:25:31.077Z,16.68
2023-05-25T08:26:41.710Z,16.65
2023-05-25T08:27:32.809Z,16.63
2023-05-25T08:28:30.901Z,16.63
2023-05-25T08:29:30.855Z,16.71
2023-05-25T08:30:30.800Z,16.62
2023-05-25T08:31:30.839Z,16.62
2023-05-25T08:32:30.705Z,16.67
2023-05-25T08:33:30.648Z,16.68
2023-05-25T08:34:30.584Z,16.65
2023-05-25T08:35:30.532Z,16.70
2023-05-25T08:36:30.483Z,16.65
2023-05-25T08:37:30.430Z,16.70
2023-05-25T08:38:30.367Z,16.68
2023-05-25T08:39:30.680Z,16.70
2023-05-25T08:40:30.261Z,16.65
2023-05-25T08:41:30.206Z,16.73
2023-05-25T08:42:30.170Z,16.68
2023-05-25T08:43:30.120Z,16.75
2023-05-25T08:44:30.053Z,16.65
2023-05-25T08:45:35.832Z,16.77
2023-05-25T08:46:29.950Z,16.74
2023-05-25T08:47:29.937Z,16.78
2023-05-25T08:48:40.114Z,16.75
2023-05-25T08:49:29.837Z,16.78
2023-05-25T08:50:29.735Z,16.70
2023-05-25T08:51:29.680Z,16.77
2023-05-25T08:52:29.627Z,16.75
2023-05-25T08:53:29.577Z,16.73
2023-05-25T08:54:29.561Z,16.73
2023-05-25T08:55:29.471Z,16.75
2023-05-25T08:56:29.416Z,16.85
2023-05-25T08:57:29.362Z,16.75
2023-05-25T08:58:29.303Z,16.75
2023-05-25T08:59:29.248Z,16.86
2023-05-25T09:00:29.200Z,16.77
2023-05-25T09:01:29.185Z,16.89
2023-05-25T09:02:29.129Z,16.78
2023-05-25T09:03:29.167Z,16.74
2023-05-25T09:04:28.988Z,16.73
2023-05-25T09:05:28.929Z,16.86
2023-05-25T09:06:28.880Z,16.86
2023-05-25T09:07:28.830Z,16.86
2023-05-25T09:08:28.800Z,16.75
2023-05-25T09:09:28.728Z,16.81
2023-05-25T09:10:28.672Z,16.90
2023-05-25T09:11:38.637Z,16.89
2023-05-25T09:12:28.563Z,16.88
2023-05-25T09:13:28.507Z,16.90
2023-05-25T09:14:28.482Z,16.93
2023-05-25T09:15:28.442Z,16.86
2023-05-25T09:16:28.373Z,16.86
2023-05-25T09:17:28.304Z,16.86
2023-05-25T09:18:28.264Z,16.96
2023-05-25T09:19:28.187Z,16.99
2023-05-25T09:20:28.170Z,16.95
2023-05-25T09:21:28.091Z,16.88
2023-05-25T09:22:28.030Z,16.93
2023-05-25T09:23:27.986Z,16.96
2023-05-25T09:24:27.924Z,16.96
2023-05-25T09:25:27.882Z,16.93
2023-05-25T09:26:27.820Z,16.95
2023-05-25T09:27:27.775Z,16.92
2023-05-25T09:28:27.971Z,16.95
2023-05-25T09:29:27.671Z,16.99
2023-05-25T09:30:27.607Z,16.92
2023-05-25T09:31:27.561Z,16.98
2023-05-25T09:32:27.646Z,16.92
2023-05-25T09:33:27.453Z,16.90
2023-05-25T09:34:27.408Z,16.93
2023-05-25T09:35:27.348Z,16.96
2023-05-25T09:36:27.374Z,16.95
2023-05-25T09:37:27.474Z,16.96
2023-05-25T09:38:27.661Z,16.98
2023-05-25T09:40:27.080Z,16.99
2023-05-25T09:41:27.046Z,17.03
2023-05-25T09:42:26.995Z,16.98
2023-05-25T09:43:40.588Z,17.00
2023-05-25T09:44:26.877Z,16.99
2023-05-25T09:45:26.817Z,16.96
2023-05-25T09:46:26.830Z,16.99
2023-05-25T09:47:26.738Z,16.98
2023-05-25T09:48:26.655Z,17.03
2023-05-25T09:49:26.611Z,17.07
2023-05-25T09:50:26.578Z,17.00
2023-05-25T09:51:26.512Z,17.13
2023-05-25T09:52:26.443Z,17.10
2023-05-25T09:53:26.394Z,17.10
2023-05-25T09:54:26.338Z,17.10
2023-05-25T09:55:31.696Z,17.15
2023-05-25T09:56:26.235Z,17.15
2023-05-25T09:57:26.184Z,17.14
2023-05-25T09:58:26.136Z,17.13
2023-05-25T09:59:26.079Z,17.10
2023-05-25T10:00:26.025Z,17.15
2023-05-25T10:01:25.970Z,17.11
2023-05-25T10:02:25.959Z,17.18
2023-05-25T10:03:25.887Z,17.14
2023-05-25T10:04:25.836Z,17.18
2023-05-25T10:05:25.752Z,17.18
2023-05-25T10:06:25.704Z,17.18
2023-05-25T10:07:25.648Z,17.22
2023-05-25T10:08:28.596Z,17.22
2023-05-25T10:09:25.544Z,17.20
2023-05-25T10:10:25.491Z,17.26
2023-05-25T10:11:25.438Z,17.26
2023-05-25T10:12:25.386Z,17.18
2023-05-25T10:13:25.358Z,17.26
2023-05-25T10:14:26.559Z,17.25
2023-05-25T10:15:25.227Z,17.23
2023-05-25T10:16:25.252Z,17.20
2023-05-25T10:17:25.197Z,17.25
2023-05-25T10:18:25.069Z,17.26
2023-05-25T10:19:25.031Z,17.29
2023-05-25T10:20:26.612Z,17.32
2023-05-25T10:21:24.910Z,17.32
2023-05-25T10:22:24.858Z,17.22
2023-05-25T10:23:24.809Z,17.36
2023-05-25T10:24:24.755Z,17.30
2023-05-25T10:25:24.699Z,17.30
2023-05-25T10:26:24.655Z,17.30
2023-05-25T10:27:27.484Z,17.29
2023-05-25T10:28:24.540Z,17.38
2023-05-25T10:29:24.495Z,17.30
2023-05-25T10:30:24.433Z,17.32
2023-05-25T10:31:24.435Z,17.41
2023-05-25T10:32:24.390Z,17.32
2023-05-25T10:33:24.285Z,17.44
2023-05-25T10:34:24.223Z,17.43
2023-05-25T10:35:24.167Z,17.46
2023-05-25T10:36:24.118Z,17.33
2023-05-25T10:37:24.054Z,17.38
2023-05-25T10:38:24.003Z,17.36
2023-05-25T10:39:23.950Z,17.32
2023-05-25T10:40:23.915Z,17.40
2023-05-25T10:41:23.855Z,17.33
2023-05-25T10:42:23.794Z,17.36
2023-05-25T10:43:23.749Z,17.35
2023-05-25T10:44:23.700Z,17.38
2023-05-25T10:45:23.642Z,17.47
2023-05-25T10:46:23.700Z,17.46
2023-05-25T10:47:23.602Z,17.47
2023-05-25T10:48:23.602Z,17.47
2023-05-25T10:49:23.421Z,17.51
2023-05-25T10:50:23.375Z,17.53
2023-05-25T10:51:23.342Z,17.50
2023-05-25T10:52:23.265Z,17.47
2023-05-25T10:53:23.217Z,17.47
2023-05-25T10:54:23.158Z,17.46
2023-05-25T10:55:23.107Z,17.51
2023-05-25T10:56:23.056Z,17.50
2023-05-25T10:57:22.999Z,17.55
2023-05-25T10:58:22.965Z,17.55
2023-05-25T10:59:22.902Z,17.57
2023-05-25T11:00:22.876Z,17.63
2023-05-25T11:01:22.894Z,17.62
2023-05-25T11:02:22.773Z,17.57
2023-05-25T11:03:22.684Z,17.47
2023-05-25T11:04:22.700Z,17.48
2023-05-25T11:05:22.581Z,17.57
2023-05-25T11:06:22.529Z,17.50
2023-05-25T11:07:22.478Z,17.55
2023-05-25T11:08:22.421Z,17.59
2023-05-25T11:09:22.371Z,17.57
2023-05-25T11:10:22.326Z,17.57
2023-05-25T11:11:22.289Z,17.57
2023-05-25T11:12:22.210Z,17.63
2023-05-25T11:13:22.154Z,17.62
2023-05-25T11:14:22.118Z,17.62
2023-05-25T11:15:22.064Z,17.71
2023-05-25T11:16:22.107Z,17.73
2023-05-25T11:17:22.005Z,17.74
2023-05-25T11:18:21.896Z,17.71
2023-05-25T11:19:21.845Z,17.73
2023-05-25T11:20:21.859Z,17.73
2023-05-25T11:21:21.757Z,17.67
2023-05-25T11:22:21.684Z,17.73
2023-05-25T11:23:21.632Z,17.71
2023-05-25T11:24:21.578Z,17.71
2023-05-25T11:25:21.526Z,17.78
2023-05-25T11:26:21.477Z,17.74
2023-05-25T11:27:21.424Z,17.74
2023-05-25T11:28:21.370Z,17.73
2023-05-25T11:29:21.321Z,17.76
2023-05-25T11:30:21.264Z,17.74
2023-05-25T11:31:21.259Z,17.82
2023-05-25T11:32:21.233Z,17.78
2023-05-25T11:33:21.113Z,17.74
2023-05-25T11:34:21.055Z,17.76
2023-05-25T11:35:21.012Z,17.69
2023-05-25T11:36:20.946Z,17.78
2023-05-25T11:37:20.903Z,17.79
2023-05-25T11:38:20.844Z,17.79
2023-05-25T11:39:23.060Z,17.79
2023-05-25T11:40:20.739Z,17.81
2023-05-25T11:41:20.688Z,17.79
2023-05-25T11:42:20.630Z,17.78
2023-05-25T11:43:20.585Z,17.85
2023-05-25T11:44:20.527Z,17.84
2023-05-25T11:45:20.475Z,17.88
2023-05-25T11:46:20.455Z,17.84
2023-05-25T11:47:20.367Z,17.79
2023-05-25T11:48:20.347Z,17.81
2023-05-25T11:49:20.274Z,17.85
2023-05-25T11:50:20.227Z,17.85
2023-05-25T11:51:20.165Z,17.78
2023-05-25T11:52:20.109Z,17.91
2023-05-25T11:53:20.057Z,17.84
2023-05-25T11:54:20.000Z,17.81
2023-05-25T11:55:19.949Z,17.82
2023-05-25T11:56:33.678Z,17.81
2023-05-25T11:57:19.850Z,17.82
2023-05-25T11:58:19.790Z,17.84
2023-05-25T11:59:19.739Z,17.89
2023-05-25T12:00:19.678Z,17.85
2023-05-25T12:01:19.633Z,17.92
2023-05-25T12:02:19.571Z,17.89
2023-05-25T12:03:19.603Z,17.84
2023-05-25T12:04:21.132Z,17.92
2023-05-25T12:05:19.500Z,17.91
2023-05-25T12:06:19.365Z,17.84
2023-05-25T12:07:19.313Z,17.91
2023-05-25T12:08:19.272Z,17.87
2023-05-25T12:09:19.210Z,17.82
2023-05-25T12:10:19.160Z,17.99
2023-05-25T12:11:19.100Z,17.88
2023-05-25T12:12:19.050Z,17.89
2023-05-25T12:13:18.999Z,17.88
2023-05-25T12:14:18.955Z,17.88
2023-05-25T12:15:20.672Z,17.94
2023-05-25T12:16:18.862Z,17.89
2023-05-25T12:17:18.816Z,17.85
2023-05-25T12:18:18.740Z,17.89
2023-05-25T12:19:18.685Z,17.92
2023-05-25T12:20:18.712Z,18.02
2023-05-25T12:21:18.591Z,17.94
2023-05-25T12:22:18.529Z,17.94
2023-05-25T12:23:18.477Z,18.03
2023-05-25T12:24:18.426Z,18.00
2023-05-25T12:25:18.410Z,18.07
2023-05-25T12:26:18.330Z,17.97
2023-05-25T12:27:18.267Z,18.04
2023-05-25T12:28:18.213Z,18.03
2023-05-25T12:29:18.163Z,18.04
2023-05-25T12:30:18.110Z,17.99
2023-05-25T12:31:18.104Z,18.04
2023-05-25T12:32:18.001Z,17.99
2023-05-25T12:33:18.029Z,18.04
2023-05-25T12:34:17.899Z,18.03
2023-05-25T12:35:17.845Z,18.00
2023-05-25T12:36:17.792Z,18.02
2023-05-25T12:37:17.746Z,18.06
2023-05-25T12:38:17.742Z,18.04
2023-05-25T12:39:17.644Z,18.03
2023-05-25T12:40:17.586Z,18.02
2023-05-25T12:41:17.534Z,18.17
2023-05-25T12:42:17.477Z,18.15
2023-05-25T12:43:17.753Z,18.10
2023-05-25T12:44:17.399Z,18.12
2023-05-25T12:45:17.325Z,18.07
2023-05-25T12:46:17.318Z,18.04
2023-05-25T12:47:17.227Z,18.10
2023-05-25T12:48:17.233Z,18.12
2023-05-25T12:49:17.115Z,18.13
2023-05-25T12:50:17.064Z,18.12
2023-05-25T12:51:17.020Z,18.13
2023-05-25T12:52:16.960Z,18.12
2023-05-25T12:53:16.941Z,18.13
2023-05-25T12:54:16.870Z,18.09
2023-05-25T12:55:17.197Z,18.12
2023-05-25T12:56:16.753Z,18.17
2023-05-25T12:57:16.706Z,18.13
2023-05-25T12:58:16.659Z,18.22
2023-05-25T12:59:16.596Z,18.13
2023-05-25T13:00:16.570Z,18.24
2023-05-25T13:01:16.493Z,18.24
2023-05-25T13:02:16.572Z,18.22
2023-05-25T13:03:16.431Z,18.24
2023-05-25T13:04:16.326Z,18.25
2023-05-25T13:05:16.312Z,18.25
2023-05-25T13:06:16.236Z,18.27